Time;durP1;ratioP1;P1;durP2;ratioP2;P2;SDS_P1;SDS_P2;PMS_P1;PMS_P2;Temp;Humidity;BMP_temperature;BMP_pressure;BME280_temperature;BME280_humidity;BME280_pressure;Samples;Min_cycle;Max_cycle;Signal;HPM_P1;HPM_P2
2022/12/28 00:01:08;;;;;;;147.27;61.63;;;;;;;8.88;100.00;101548.72;5037372;28;20120;-82
2022/12/28 00:03:33;;;;;;;153.43;61.97;;;;;;;8.82;100.00;101549.19;5055514;28;20510;-79
2022/12/28 00:05:59;;;;;;;169.05;66.22;;;;;;;8.74;100.00;101544.56;5038167;28;20033;-80
2022/12/28 00:08:25;;;;;;;272.90;70.53;;;;;;;8.67;100.00;101543.38;5057009;28;20059;-80
2022/12/28 00:10:50;;;;;;;179.27;67.57;;;;;;;8.70;100.00;101540.50;5056911;28;20474;-81
2022/12/28 00:13:16;;;;;;;178.23;66.13;;;;;;;8.83;100.00;101533.22;5055785;28;20456;-80
2022/12/28 00:15:41;;;;;;;164.95;64.25;;;;;;;8.91;100.00;101534.41;5055401;28;20029;-80
2022/12/28 00:18:07;;;;;;;159.50;62.33;;;;;;;8.98;100.00;101540.88;5054630;28;20478;-80
2022/12/28 00:20:32;;;;;;;168.73;65.60;;;;;;;8.82;100.00;101539.47;5037680;28;20108;-81
2022/12/28 00:22:58;;;;;;;191.38;67.25;;;;;;;8.99;100.00;101537.25;5056117;28;20044;-80
2022/12/28 00:25:23;;;;;;;178.00;68.30;;;;;;;9.12;100.00;101538.75;5058249;28;20064;-81
2022/12/28 00:27:49;;;;;;;167.75;65.10;;;;;;;9.12;100.00;101548.47;5041151;28;20058;-80
2022/12/28 00:30:15;;;;;;;170.52;65.00;;;;;;;9.08;100.00;101537.31;5056812;28;20032;-84
2022/12/28 00:32:40;;;;;;;163.25;63.90;;;;;;;9.14;100.00;101534.19;5055692;28;20029;-80
2022/12/28 00:35:06;;;;;;;165.95;65.30;;;;;;;8.88;100.00;101530.22;5056454;28;20037;-79
2022/12/28 00:37:32;;;;;;;162.25;63.35;;;;;;;9.02;100.00;101532.53;5038805;28;20029;-79
2022/12/28 00:39:58;;;;;;;166.05;66.20;;;;;;;9.05;100.00;101531.47;5037759;28;20048;-79
2022/12/28 00:42:23;;;;;;;170.55;65.45;;;;;;;8.97;100.00;101528.59;5039563;28;20025;-78
2022/12/28 00:44:52;;;;;;;174.07;63.38;;;;;;;8.93;100.00;101521.91;5054734;28;20510;-79
2022/12/28 00:47:17;;;;;;;177.10;66.20;;;;;;;8.69;100.00;101520.31;5054431;28;20024;-79
2022/12/28 00:49:43;;;;;;;189.00;66.18;;;;;;;8.65;100.00;101524.16;5053804;28;20037;-77
2022/12/28 00:52:08;;;;;;;181.10;68.13;;;;;;;8.88;100.00;101532.03;5042091;28;20081;-78
2022/12/28 00:54:33;;;;;;;185.27;66.55;;;;;;;8.88;100.00;101526.72;5054504;28;20033;-78
2022/12/28 00:57:01;;;;;;;193.90;69.25;;;;;;;8.60;100.00;101536.06;5053983;28;20494;-79
2022/12/28 00:59:26;;;;;;;197.70;69.78;;;;;;;8.71;100.00;101538.69;5054004;28;20049;-80
2022/12/28 01:01:52;;;;;;;205.32;69.10;;;;;;;8.93;100.00;101537.75;5038785;28;20037;-81
2022/12/28 01:04:17;;;;;;;209.77;68.57;;;;;;;8.71;100.00;101538.69;5055060;28;20060;-80
2022/12/28 01:06:43;;;;;;;189.57;66.70;;;;;;;8.72;100.00;101554.41;5054031;28;20033;-79
2022/12/28 01:09:08;;;;;;;205.38;68.13;;;;;;;8.90;100.00;101533.56;5036818;28;20064;-80
2022/12/28 01:11:34;;;;;;;182.77;67.28;;;;;;;8.70;100.00;101543.13;5055113;28;20040;-80
2022/12/28 01:14:01;;;;;;;231.60;68.43;;;;;;;8.77;100.00;101539.03;5054607;28;20033;-80
2022/12/28 01:16:35;;;;;;;202.15;67.20;;;;;;;8.80;100.00;101538.78;5055182;28;20040;-81
2022/12/28 01:19:03;;;;;;;186.85;68.40;;;;;;;8.68;100.00;101549.50;5054559;28;20068;-79
2022/12/28 01:21:30;;;;;;;172.35;63.03;;;;;;;8.82;100.00;101546.56;5036274;28;20100;-80
2022/12/28 01:24:00;;;;;;;170.57;65.03;;;;;;;8.88;100.00;101540.78;5039537;28;20033;-79
2022/12/28 01:26:26;;;;;;;185.80;66.07;;;;;;;8.89;100.00;101544.25;5057226;28;20162;-79
2022/12/28 01:28:52;;;;;;;208.77;70.00;;;;;;;8.72;100.00;101535.06;5053604;28;20035;-81
2022/12/28 01:31:20;;;;;;;241.35;71.63;;;;;;;8.57;100.00;101542.44;5054665;28;20104;-79
2022/12/28 01:33:45;;;;;;;226.77;72.07;;;;;;;8.76;100.00;101552.34;5036068;28;20033;-79
2022/12/28 01:36:17;;;;;;;193.07;70.15;;;;;;;8.86;100.00;101563.00;5036200;28;20116;-80
2022/12/28 01:38:44;;;;;;;249.23;73.78;;;;;;;8.64;100.00;101559.50;5063854;28;20033;-79
2022/12/28 01:41:12;;;;;;;258.52;72.43;;;;;;;8.74;100.00;101571.00;5055629;28;20090;-80
2022/12/28 01:44:05;;;;;;;231.07;73.45;;;;;;;8.88;100.00;101576.97;5054398;28;20037;-80
2022/12/28 01:46:31;;;;;;;260.92;70.45;;;;;;;8.88;100.00;101571.69;5017187;28;20052;-78
2022/12/28 01:49:12;;;;;;;249.68;72.68;;;;;;;8.61;100.00;101574.75;5054186;28;20471;-79
2022/12/28 01:52:10;;;;;;;240.02;73.53;;;;;;;8.56;100.00;101567.19;5054807;28;20037;-80
2022/12/28 01:55:05;;;;;;;206.07;69.72;;;;;;;8.68;100.00;101571.47;5038019;28;20041;-82
2022/12/28 01:57:38;;;;;;;205.13;73.43;;;;;;;8.83;100.00;101569.41;5057984;28;20114;-80
2022/12/28 02:00:11;;;;;;;220.13;72.75;;;;;;;8.85;100.00;101571.94;5040100;28;20040;-81
2022/12/28 02:02:52;;;;;;;171.98;62.60;;;;;;;8.80;100.00;101569.66;5057626;28;20037;-80
2022/12/28 02:05:21;;;;;;;147.23;59.58;;;;;;;9.00;100.00;101573.31;5058414;28;20040;-80
2022/12/28 02:07:54;;;;;;;150.88;60.88;;;;;;;8.87;100.00;101556.78;5039906;28;20476;-80
2022/12/28 02:10:21;;;;;;;149.23;60.33;;;;;;;8.80;100.00;101553.78;5057998;28;20043;-81
2022/12/28 02:12:46;;;;;;;142.35;58.35;;;;;;;8.90;100.00;101559.16;5057996;28;20817;-81
2022/12/28 02:15:12;;;;;;;139.35;59.85;;;;;;;8.83;100.00;101566.75;5040046;28;20033;-80
2022/12/28 02:17:37;;;;;;;148.18;58.55;;;;;;;8.83;100.00;101559.66;5039876;28;20550;-80
2022/12/28 02:20:04;;;;;;;139.55;57.20;;;;;;;8.98;100.00;101557.53;5058303;28;20059;-80
2022/12/28 02:22:51;;;;;;;119.18;54.75;;;;;;;9.16;100.00;101556.03;5058193;28;20091;-80
2022/12/28 02:25:37;;;;;;;117.00;53.35;;;;;;;9.26;100.00;101556.09;5058485;28;20380;-80
2022/12/28 02:28:03;;;;;;;132.57;56.38;;;;;;;8.91;100.00;101553.75;5058289;28;20475;-83
2022/12/28 02:30:34;;;;;;;126.72;55.42;;;;;;;8.71;100.00;101550.09;5057698;28;20025;-81
2022/12/28 02:33:17;;;;;;;121.28;53.60;;;;;;;8.63;100.00;101547.22;5057907;28;20041;-80
2022/12/28 02:35:50;;;;;;;133.20;58.13;;;;;;;8.65;100.00;101547.13;5058250;28;20033;-79
2022/12/28 02:38:31;;;;;;;138.90;58.03;;;;;;;8.62;100.00;101545.53;5039581;28;20121;-80
2022/12/28 02:41:02;;;;;;;139.45;57.97;;;;;;;8.62;100.00;101548.19;5057669;28;20119;-79
2022/12/28 02:43:28;;;;;;;128.77;55.63;;;;;;;8.84;100.00;101549.94;5057449;28;20033;-80
2022/12/28 02:51:57;;;;;;;119.93;55.28;;;;;;;8.87;100.00;101538.25;5057579;28;20036;-78
2022/12/28 02:57:53;;;;;;;128.55;56.13;;;;;;;9.04;100.00;101543.00;5038731;28;20041;-79
2022/12/28 03:00:23;;;;;;;124.00;52.92;;;;;;;9.12;100.00;101530.81;5038761;28;20048;-79
2022/12/28 03:02:48;;;;;;;126.32;55.20;;;;;;;9.20;100.00;101538.94;5055438;28;20048;-79
2022/12/28 03:08:52;;;;;;;294.85;68.63;;;;;;;9.02;100.00;101531.69;4990846;28;20079;-80
2022/12/28 03:11:38;;;;;;;227.93;66.68;;;;;;;9.04;100.00;101524.50;5055267;28;20037;-79
2022/12/28 03:14:08;;;;;;;199.52;65.30;;;;;;;9.12;100.00;101529.97;5038264;28;20535;-79
2022/12/28 03:33:39;;;;;;;200.32;70.38;;;;;;;8.99;100.00;101502.88;5037017;28;20037;-78
2022/12/28 03:36:27;;;;;;;201.88;64.25;;;;;;;9.19;100.00;101502.03;5037076;28;20060;-80
2022/12/28 03:39:16;;;;;;;244.73;70.28;;;;;;;9.19;100.00;101496.75;5037001;28;20045;-79
2022/12/28 03:44:41;;;;;;;279.70;65.25;;;;;;;8.87;100.00;101490.69;5037122;28;20044;-80
2022/12/28 03:47:10;;;;;;;241.77;66.53;;;;;;;8.85;100.00;101492.63;5036868;28;20079;-80
2022/12/28 03:49:38;;;;;;;232.35;65.78;;;;;;;8.70;100.00;101485.00;5054675;28;20039;-80
2022/12/28 03:52:06;;;;;;;300.42;69.63;;;;;;;8.74;100.00;101489.06;5036386;28;20086;-81
2022/12/28 03:54:32;;;;;;;427.90;68.70;;;;;;;8.77;100.00;101488.81;5036153;28;20057;-82
2022/12/28 03:56:58;;;;;;;231.65;66.10;;;;;;;8.94;100.00;101497.16;5036663;28;20124;-78
2022/12/28 03:59:28;;;;;;;251.55;66.90;;;;;;;8.76;100.00;101495.06;5036309;28;20381;-80
2022/12/28 04:01:54;;;;;;;214.57;65.47;;;;;;;8.87;100.00;101498.63;5035890;28;20040;-80
2022/12/28 04:04:20;;;;;;;279.30;64.25;;;;;;;8.76;100.00;101488.94;5036794;28;20033;-80
2022/12/28 04:06:48;;;;;;;215.25;62.58;;;;;;;8.76;100.00;101484.47;5036343;28;20387;-80
2022/12/28 04:09:14;;;;;;;196.32;63.97;;;;;;;8.83;100.00;101483.00;5035970;28;20120;-79
2022/12/28 04:11:40;;;;;;;254.82;64.55;;;;;;;8.89;100.00;101483.44;5036509;28;20033;-79
2022/12/28 04:14:08;;;;;;;262.05;64.80;;;;;;;8.95;100.00;101472.38;5036119;28;20045;-79
2022/12/28 04:16:36;;;;;;;516.17;66.22;;;;;;;8.66;100.00;101483.56;5035733;28;20044;-80
2022/12/28 04:19:03;;;;;;;348.98;64.45;;;;;;;8.47;100.00;101478.13;5036288;28;20108;-78
2022/12/28 04:21:30;;;;;;;273.75;66.35;;;;;;;8.60;100.00;101481.44;5035718;28;20033;-78
2022/12/28 04:23:56;;;;;;;205.57;65.22;;;;;;;8.83;100.00;101496.22;5019416;28;20041;-81
2022/12/28 04:26:22;;;;;;;285.58;66.00;;;;;;;8.83;100.00;101498.88;5036038;28;20419;-79
2022/12/28 04:28:50;;;;;;;183.65;61.00;;;;;;;8.80;100.00;101504.41;5019670;28;20037;-79
2022/12/28 04:31:24;;;;;;;228.48;63.50;;;;;;;8.93;100.00;101506.88;5053825;28;20036;-81
2022/12/28 04:33:58;;;;;;;176.73;60.05;;;;;;;9.01;100.00;101512.38;5052088;28;20055;-79
2022/12/28 04:36:24;;;;;;;322.65;64.95;;;;;;;8.93;100.00;101506.88;5035434;28;20040;-79
2022/12/28 04:38:50;;;;;;;274.02;64.15;;;;;;;8.93;100.00;101508.69;5035719;28;20021;-79
2022/12/28 04:41:15;;;;;;;215.82;63.67;;;;;;;8.92;100.00;101512.28;5053783;28;20108;-80
2022/12/28 04:43:41;;;;;;;263.55;64.68;;;;;;;8.77;100.00;101515.25;5053401;28;20033;-79
2022/12/28 04:46:11;;;;;;;165.45;57.63;;;;;;;8.97;100.00;101518.03;5053973;28;20044;-79
2022/12/28 04:48:36;;;;;;;198.38;60.53;;;;;;;9.00;100.00;101523.91;5053453;28;20218;-80
2022/12/28 04:51:14;;;;;;;201.27;62.22;;;;;;;8.81;100.00;101516.66;5053322;28;20120;-80
2022/12/28 04:53:40;;;;;;;267.20;62.83;;;;;;;8.76;100.00;101510.91;5053577;28;20038;-82
2022/12/28 04:56:08;;;;;;;248.60;63.20;;;;;;;8.67;100.00;101510.84;5035415;28;20098;-79
2022/12/28 04:58:34;;;;;;;466.80;66.00;;;;;;;8.46;100.00;101494.91;5053008;28;20028;-80
2022/12/28 05:01:11;;;;;;;178.00;62.33;;;;;;;8.67;100.00;101498.47;5053620;28;20036;-80
2022/12/28 05:03:41;;;;;;;175.15;60.78;;;;;;;8.91;100.00;101494.75;5053036;28;20114;-79
2022/12/28 05:06:10;;;;;;;183.10;62.72;;;;;;;9.02;100.00;101502.59;5053224;28;20035;-81
2022/12/28 05:08:36;;;;;;;275.10;64.38;;;;;;;9.04;100.00;101503.34;5035439;28;20032;-80
2022/12/28 05:11:04;;;;;;;215.35;60.45;;;;;;;9.01;100.00;101504.44;5053395;28;20029;-80
2022/12/28 05:13:30;;;;;;;154.45;56.80;;;;;;;9.00;100.00;101509.84;5053482;28;20037;-79
2022/12/28 05:16:05;;;;;;;186.35;60.33;;;;;;;8.76;100.00;101510.06;5036215;28;20032;-78
2022/12/28 05:18:31;;;;;;;185.80;62.05;;;;;;;8.77;100.00;101512.59;5042515;28;20041;-79
2022/12/28 05:21:06;;;;;;;230.38;64.00;;;;;;;8.96;100.00;101511.06;5060508;28;20146;-78
2022/12/28 05:23:34;;;;;;;235.13;61.00;;;;;;;8.87;100.00;101511.84;5056714;28;20080;-79
2022/12/28 05:26:00;;;;;;;342.90;61.60;;;;;;;8.87;100.00;101507.38;5056163;28;20484;-80
2022/12/28 05:28:25;;;;;;;361.67;60.45;;;;;;;8.79;100.00;101505.38;5054822;28;20033;-78
2022/12/28 05:30:52;;;;;;;184.88;56.60;;;;;;;9.00;100.00;101513.34;5037045;28;20037;-79
2022/12/28 05:33:20;;;;;;;434.52;65.85;;;;;;;8.87;100.00;101512.66;5058692;28;20056;-80
2022/12/28 05:35:45;;;;;;;323.40;61.35;;;;;;;8.59;100.00;101506.16;5057113;28;20028;-79
2022/12/28 05:38:11;;;;;;;188.38;58.22;;;;;;;8.60;100.00;101499.91;5060676;28;20116;-81
2022/12/28 05:40:36;;;;;;;160.05;59.00;;;;;;;8.75;100.00;101503.94;5060090;28;20036;-78
2022/12/28 05:43:02;;;;;;;213.20;60.25;;;;;;;8.74;100.00;101501.44;5061235;28;20119;-79
2022/12/28 05:45:27;;;;;;;167.77;58.25;;;;;;;8.79;100.00;101502.72;5060287;28;20127;-78
2022/12/28 05:47:53;;;;;;;231.77;60.25;;;;;;;8.59;100.00;101503.53;5061349;28;20040;-79
2022/12/28 05:50:19;;;;;;;291.95;60.80;;;;;;;8.53;100.00;101509.31;5060838;28;20037;-81
2022/12/28 05:52:44;;;;;;;163.38;57.30;;;;;;;8.59;100.00;101503.53;5060183;28;20083;-78
2022/12/28 05:55:10;;;;;;;165.45;59.42;;;;;;;8.55;100.00;101498.63;5061524;28;20029;-78
2022/12/28 05:57:36;;;;;;;167.90;59.63;;;;;;;8.66;100.00;101504.69;5055662;28;20029;-80
2022/12/28 06:00:03;;;;;;;228.70;60.70;;;;;;;8.47;100.00;101499.25;5053307;28;20037;-81
2022/12/28 06:02:37;;;;;;;150.43;56.60;;;;;;;8.47;100.00;101504.53;5053391;28;20049;-79
2022/12/28 06:05:02;;;;;;;160.15;59.47;;;;;;;8.38;100.00;101504.44;5052883;28;20104;-80
2022/12/28 06:07:28;;;;;;;219.70;62.17;;;;;;;8.44;100.00;101503.94;5052799;28;20061;-81
2022/12/28 06:09:53;;;;;;;243.38;64.40;;;;;;;8.32;100.00;101511.03;5053229;28;20033;-81
2022/12/28 06:12:19;;;;;;;251.80;63.72;;;;;;;8.45;100.00;101514.38;5034744;28;20048;-79
2022/12/28 06:14:44;;;;;;;226.30;61.88;;;;;;;8.56;100.00;101522.28;5053006;28;20067;-80
2022/12/28 06:17:10;;;;;;;186.50;63.42;;;;;;;8.61;100.00;101525.41;5053802;28;20460;-79
2022/12/28 06:19:35;;;;;;;197.45;62.33;;;;;;;8.80;100.00;101528.19;5036685;28;20076;-80
2022/12/28 06:22:00;;;;;;;207.98;61.40;;;;;;;8.73;100.00;101524.38;5055163;28;20440;-80
2022/12/28 06:24:26;;;;;;;267.15;61.90;;;;;;;8.73;100.00;101521.72;5055642;28;20100;-80
2022/12/28 06:26:51;;;;;;;212.23;61.58;;;;;;;8.61;100.00;101517.47;5036631;28;20110;-79
2022/12/28 06:29:17;;;;;;;316.75;64.18;;;;;;;8.46;100.00;101523.97;5035079;28;20043;-79
2022/12/28 06:31:46;;;;;;;277.60;64.43;;;;;;;8.48;100.00;101526.50;5052755;28;20037;-80
2022/12/28 06:34:12;;;;;;;302.65;65.68;;;;;;;8.52;100.00;101528.75;5046078;28;20041;-81
2022/12/28 06:36:39;;;;;;;273.67;63.80;;;;;;;8.61;100.00;101527.19;5052361;28;20040;-81
2022/12/28 06:39:07;;;;;;;260.70;64.03;;;;;;;8.56;100.00;101530.19;5053028;28;20052;-80
2022/12/28 06:41:32;;;;;;;567.72;68.90;;;;;;;8.40;100.00;101523.63;5055619;28;20083;-80
2022/12/28 06:43:58;;;;;;;215.95;60.85;;;;;;;8.65;100.00;101516.22;5056389;28;20029;-82
2022/12/28 06:46:26;;;;;;;215.63;62.28;;;;;;;8.48;100.00;101521.22;5057077;28;20090;-79
2022/12/28 06:48:54;;;;;;;215.13;59.95;;;;;;;8.57;100.00;101526.59;5056685;28;20033;-82
2022/12/28 06:51:27;;;;;;;219.40;60.60;;;;;;;8.59;100.00;101524.66;5039097;28;20037;-81
2022/12/28 06:53:53;;;;;;;272.75;61.50;;;;;;;8.47;100.00;101525.66;5039050;28;20044;-80
2022/12/28 06:56:26;;;;;;;230.30;59.25;;;;;;;8.49;100.00;101523.72;5039131;28;20057;-79
2022/12/28 06:58:52;;;;;;;198.57;62.63;;;;;;;8.62;100.00;101534.97;5056155;28;20029;-79
2022/12/28 07:01:26;;;;;;;220.48;60.67;;;;;;;8.53;100.00;101540.16;5056279;28;20488;-81
2022/12/28 07:03:54;;;;;;;336.55;62.88;;;;;;;8.64;100.00;101543.63;5055933;28;20029;-78
2022/12/28 07:06:21;;;;;;;265.60;62.90;;;;;;;8.57;100.00;101550.38;5056293;28;20041;-80
2022/12/28 07:08:51;;;;;;;217.57;60.90;;;;;;;8.62;100.00;101540.25;5055466;28;20082;-80
2022/12/28 07:11:20;;;;;;;199.48;60.92;;;;;;;8.43;100.00;101545.34;5056418;28;20037;-80
2022/12/28 07:13:45;;;;;;;194.35;63.78;;;;;;;8.33;100.00;101544.41;5038113;28;20044;-79
2022/12/28 07:16:15;;;;;;;191.20;60.60;;;;;;;8.50;100.00;101545.69;5055443;28;20040;-79
2022/12/28 07:18:41;;;;;;;278.63;65.70;;;;;;;8.25;100.00;101554.75;5056215;28;20083;-78
2022/12/28 07:21:10;;;;;;;288.75;66.30;;;;;;;8.26;100.00;101551.13;5056109;28;20033;-80
2022/12/28 07:23:36;;;;;;;175.25;62.17;;;;;;;8.23;100.00;101556.63;5037570;28;20025;-79
2022/12/28 07:26:09;;;;;;;245.43;61.30;;;;;;;8.35;100.00;101547.78;5055715;28;20051;-79
2022/12/28 07:28:37;;;;;;;173.57;55.75;;;;;;;8.36;100.00;101549.44;5037251;28;20083;-80
2022/12/28 07:31:07;;;;;;;175.05;61.08;;;;;;;8.30;100.00;101557.88;5037636;28;20040;-81
2022/12/28 07:33:34;;;;;;;159.45;60.83;;;;;;;8.22;100.00;101547.88;5055130;28;20472;-80
2022/12/28 07:36:01;;;;;;;238.48;62.08;;;;;;;8.11;100.00;101553.19;5055067;28;20510;-80
2022/12/28 07:38:27;;;;;;;215.35;61.03;;;;;;;8.21;100.00;101553.28;5055276;28;20033;-81
2022/12/28 07:41:01;;;;;;;181.95;61.50;;;;;;;8.23;100.00;101551.34;5037414;28;20112;-80
2022/12/28 07:43:27;;;;;;;165.57;60.00;;;;;;;8.50;100.00;101551.84;5055373;28;20060;-79
2022/12/28 07:46:04;;;;;;;133.70;56.83;;;;;;;8.43;100.00;101550.63;5054905;28;20551;-81
2022/12/28 07:48:34;;;;;;;135.75;55.83;;;;;;;8.28;100.00;101557.16;5055510;28;20057;-81
2022/12/28 07:51:11;;;;;;;144.48;57.25;;;;;;;8.22;100.00;101557.59;5055144;28;20441;-81
2022/12/28 07:53:38;;;;;;;144.05;58.75;;;;;;;8.14;100.00;101555.59;5054929;28;20040;-80
2022/12/28 07:56:04;;;;;;;153.55;59.22;;;;;;;8.17;100.00;101557.13;5055417;28;20025;-82
2022/12/28 07:58:29;;;;;;;158.93;60.33;;;;;;;8.11;100.00;101560.25;5054612;28;20431;-81
2022/12/28 08:01:03;;;;;;;159.43;57.42;;;;;;;8.30;100.00;101560.50;5037012;28;20402;-79
2022/12/28 08:03:28;;;;;;;155.70;59.80;;;;;;;8.30;100.00;101565.78;5036948;28;20071;-79
2022/12/28 08:05:54;;;;;;;131.73;57.15;;;;;;;8.29;100.00;101572.03;5055044;28;20427;-80
2022/12/28 08:08:19;;;;;;;137.35;55.03;;;;;;;8.34;100.00;101567.22;5056040;28;20033;-80
2022/12/28 08:10:44;;;;;;;136.25;57.08;;;;;;;8.63;100.00;101567.53;5054293;28;20137;-79
2022/12/28 08:13:10;;;;;;;176.23;53.60;;;;;;;8.56;100.00;101577.75;5054623;28;20032;-82
2022/12/28 08:15:35;;;;;;;126.70;51.72;;;;;;;8.72;100.00;101566.78;5054645;28;20029;-82
2022/12/28 08:18:02;;;;;;;120.03;50.67;;;;;;;8.64;100.00;101572.72;5054281;28;20045;-82
2022/12/28 08:20:28;;;;;;;115.43;51.75;;;;;;;8.48;100.00;101569.63;5054026;28;20090;-80
2022/12/28 08:22:53;;;;;;;101.90;50.45;;;;;;;8.64;100.00;101567.41;5054162;28;20044;-79
2022/12/28 08:25:19;;;;;;;105.35;50.92;;;;;;;8.48;100.00;101569.63;5054296;28;20029;-79
2022/12/28 08:27:44;;;;;;;107.57;51.25;;;;;;;8.34;100.00;101566.38;5054386;28;20384;-82
2022/12/28 08:30:10;;;;;;;105.10;52.08;;;;;;;8.43;100.00;101565.66;5054490;28;20029;-81
2022/12/28 08:32:36;;;;;;;95.35;48.78;;;;;;;8.66;100.00;101570.75;5036279;28;20068;-79
2022/12/28 08:35:01;;;;;;;98.38;48.75;;;;;;;8.58;100.00;101570.56;5053926;28;20081;-80
2022/12/28 08:37:27;;;;;;;99.13;49.33;;;;;;;8.66;100.00;101567.28;5054253;28;20135;-81
2022/12/28 08:39:52;;;;;;;94.20;47.83;;;;;;;8.56;100.00;101576.91;5054483;28;20107;-84
2022/12/28 08:42:17;;;;;;;88.68;46.75;;;;;;;8.80;100.00;101570.50;5055042;28;20064;-80
2022/12/28 08:44:43;;;;;;;85.47;45.78;;;;;;;8.83;100.00;101570.25;5054791;28;20384;-81
2022/12/28 08:47:08;;;;;;;77.95;42.80;;;;;;;8.80;100.00;101559.91;5054006;28;20404;-83
2022/12/28 08:49:34;;;;;;;80.18;42.90;;;;;;;8.77;100.00;101565.47;5053862;28;20025;-82
2022/12/28 08:51:59;;;;;;;77.20;43.03;;;;;;;8.70;100.00;101566.91;5053920;28;20044;-80
2022/12/28 08:54:25;;;;;;;77.68;44.22;;;;;;;8.76;100.00;101560.28;5053867;28;20037;-80
2022/12/28 08:56:51;;;;;;;80.78;42.03;;;;;;;8.92;100.00;101562.50;5053488;28;20460;-80
2022/12/28 08:59:18;;;;;;;76.47;42.30;;;;;;;8.95;100.00;101567.56;5054315;28;20033;-81
2022/12/28 09:01:44;;;;;;;79.95;43.08;;;;;;;8.94;100.00;101560.59;5053670;28;20432;-83
2022/12/28 09:04:18;;;;;;;80.32;45.70;;;;;;;9.14;100.00;101562.44;5052670;28;20126;-81
2022/12/28 09:06:43;;;;;;;77.88;43.53;;;;;;;9.12;100.00;101565.19;5053384;28;20025;-82
2022/12/28 09:09:12;;;;;;;77.80;42.83;;;;;;;9.18;100.00;101563.88;5053431;28;20443;-80
2022/12/28 09:11:39;;;;;;;79.32;42.75;;;;;;;9.07;100.00;101569.19;5039549;28;20086;-80
2022/12/28 09:14:07;;;;;;;74.50;41.28;;;;;;;9.09;100.00;101570.72;5024836;28;20051;-80
2022/12/28 09:16:34;;;;;;;74.45;42.05;;;;;;;8.98;100.00;101569.97;5054807;28;20033;-80
2022/12/28 09:19:02;;;;;;;78.05;42.25;;;;;;;8.98;100.00;101562.03;5054247;28;20083;-80
2022/12/28 09:21:29;;;;;;;82.88;42.08;;;;;;;8.90;100.00;101564.44;5054794;28;20037;-80
2022/12/28 09:23:55;;;;;;;79.97;43.72;;;;;;;8.90;100.00;101564.44;5055248;28;20249;-81
2022/12/28 09:26:23;;;;;;;78.95;41.17;;;;;;;8.97;100.00;101565.63;5055301;28;20341;-82
2022/12/28 09:28:54;;;;;;;77.20;43.05;;;;;;;8.97;100.00;101571.75;5054934;28;20083;-81
2022/12/28 09:31:21;;;;;;;74.13;40.33;;;;;;;9.13;100.00;101571.31;5054514;28;20029;-81
2022/12/28 09:34:01;;;;;;;81.43;42.60;;;;;;;9.07;100.00;101571.84;5055516;28;20039;-83
2022/12/28 09:36:30;;;;;;;79.93;44.25;;;;;;;9.07;100.00;101566.53;5055761;28;20345;-81
2022/12/28 09:38:56;;;;;;;75.63;42.33;;;;;;;9.10;100.00;101566.28;5055453;28;20133;-79
2022/12/28 09:41:37;;;;;;;80.03;43.70;;;;;;;9.13;100.00;101571.31;5054113;28;20108;-80
2022/12/28 09:44:15;;;;;;;74.82;41.15;;;;;;;9.16;100.00;101577.19;5053968;28;20033;-80
2022/12/28 09:46:53;;;;;;;73.18;40.08;;;;;;;9.21;100.00;101580.28;5054068;28;20029;-79
2022/12/28 09:49:35;;;;;;;78.40;44.00;;;;;;;9.15;100.00;101574.66;5053873;28;20127;-81
2022/12/28 09:52:23;;;;;;;79.90;42.00;;;;;;;9.09;100.00;101573.38;5054066;28;20377;-79
2022/12/28 09:54:49;;;;;;;78.38;41.85;;;;;;;9.18;100.00;101580.53;5036142;28;20509;-83
2022/12/28 09:57:17;;;;;;;73.43;40.00;;;;;;;9.13;100.00;101573.97;5053469;28;20037;-83
2022/12/28 09:59:44;;;;;;;79.40;41.58;;;;;;;9.26;100.00;101580.75;5053717;28;20029;-83
2022/12/28 10:02:32;;;;;;;78.43;40.67;;;;;;;9.36;100.00;101572.88;5054551;28;20041;-83
2022/12/28 10:05:14;;;;;;;70.72;38.90;;;;;;;9.28;100.00;101570.03;5052617;28;20025;-83
2022/12/28 10:07:40;;;;;;;78.45;41.17;;;;;;;9.28;100.00;101570.03;5054502;28;20044;-83
2022/12/28 10:10:05;;;;;;;76.75;40.10;;;;;;;9.20;100.00;101573.34;5053917;28;20037;-82
2022/12/28 10:12:31;;;;;;;73.55;40.83;;;;;;;9.21;100.00;101559.13;5037183;28;20413;-82
2022/12/28 10:14:58;;;;;;;73.15;40.47;;;;;;;9.20;100.00;101568.06;5055531;28;20029;-84
2022/12/28 10:17:29;;;;;;;80.53;42.35;;;;;;;9.27;100.00;101566.56;5056863;28;20103;-83
2022/12/28 10:19:57;;;;;;;74.00;41.63;;;;;;;9.35;100.00;101565.91;5056275;28;20037;-84
2022/12/28 10:22:25;;;;;;;76.15;41.92;;;;;;;9.32;100.00;101566.16;5039186;28;20392;-83
2022/12/28 10:24:51;;;;;;;75.95;41.38;;;;;;;9.49;100.00;101560.31;5056338;28;20029;-82
2022/12/28 10:27:28;;;;;;;72.53;40.45;;;;;;;9.49;100.00;101565.59;5022571;28;20119;-87
2022/12/28 10:29:54;;;;;;;72.93;40.03;;;;;;;9.31;100.00;101565.31;5056701;28;20181;-84
2022/12/28 10:32:20;;;;;;;76.30;42.85;;;;;;;9.23;100.00;101561.66;5038960;28;20033;-82
2022/12/28 10:34:55;;;;;;;76.03;41.17;;;;;;;9.13;100.00;101558.94;5055861;28;20416;-82
2022/12/28 10:37:22;;;;;;;79.45;41.63;;;;;;;9.21;100.00;101563.59;5055997;28;20041;-82
2022/12/28 10:39:57;;;;;;;74.85;41.38;;;;;;;9.29;100.00;101561.97;5038126;28;20127;-83
2022/12/28 10:42:56;;;;;;;78.85;42.00;;;;;;;9.26;100.00;101566.69;5056325;28;20037;-80
2022/12/28 10:45:30;;;;;;;77.53;40.58;;;;;;;9.31;100.00;101559.22;4957784;29;20066;-83
2022/12/28 10:47:56;;;;;;;79.72;42.05;;;;;;;9.48;100.00;101553.31;4964438;29;20111;-82
2022/12/28 10:50:39;;;;;;;75.72;41.35;;;;;;;9.32;100.00;101552.94;4969173;29;20039;-81
2022/12/28 10:53:15;;;;;;;82.70;43.28;;;;;;;9.31;100.00;101543.34;4968068;29;20178;-82
2022/12/28 10:55:41;;;;;;;82.85;42.60;;;;;;;9.32;100.00;101550.31;5000134;28;20067;-81
2022/12/28 10:58:19;;;;;;;77.25;42.70;;;;;;;9.16;100.00;101548.09;5039969;28;20392;-83
2022/12/28 11:00:56;;;;;;;81.85;44.03;;;;;;;9.21;100.00;101542.44;5057044;28;20080;-82
2022/12/28 11:03:30;;;;;;;85.10;44.78;;;;;;;9.10;100.00;101531.91;5052740;28;20056;-80
2022/12/28 11:06:19;;;;;;;85.05;43.80;;;;;;;9.14;100.00;101535.97;5037496;28;20072;-81
2022/12/28 11:09:18;;;;;;;92.95;47.38;;;;;;;9.31;100.00;101532.78;5045122;28;20033;-81
2022/12/28 11:11:46;;;;;;;102.38;50.55;;;;;;;9.39;100.00;101522.34;5032761;28;20136;-81
2022/12/28 11:14:24;;;;;;;89.93;45.22;;;;;;;9.35;100.00;101521.78;5043461;28;20121;-83
2022/12/28 11:16:50;;;;;;;106.40;53.83;;;;;;;9.29;100.00;101524.09;5042516;28;20094;-80
2022/12/28 11:19:16;;;;;;;119.63;58.47;;;;;;;9.24;100.00;101518.38;5043693;28;20025;-83
2022/12/28 11:21:48;;;;;;;94.60;47.13;;;;;;;9.29;100.00;101514.38;5043063;28;20490;-83
2022/12/28 11:24:15;;;;;;;94.38;47.55;;;;;;;9.26;100.00;101508.50;5043219;28;20022;-81
2022/12/28 11:26:46;;;;;;;96.35;48.10;;;;;;;9.25;100.00;101502.34;5049677;28;20029;-82
2022/12/28 11:29:15;;;;;;;87.60;45.28;;;;;;;9.29;100.00;101500.28;5047752;28;20494;-84
2022/12/28 11:32:01;;;;;;;92.95;45.50;;;;;;;9.23;100.00;101499.03;5061377;28;20033;-84
2022/12/28 11:34:27;;;;;;;95.53;48.67;;;;;;;9.19;100.00;101491.47;5022534;28;20135;-83
2022/12/28 11:36:54;;;;;;;98.68;49.78;;;;;;;9.27;100.00;101495.16;5068973;28;20060;-85
2022/12/28 11:39:31;;;;;;;102.40;47.83;;;;;;;9.38;100.00;101491.56;5057316;28;20367;-83
2022/12/28 11:42:00;;;;;;;90.75;47.58;;;;;;;9.24;100.00;101484.84;5056976;28;20040;-81
2022/12/28 11:44:29;;;;;;;86.20;44.13;;;;;;;9.20;100.00;101479.94;5072336;28;20033;-83
2022/12/28 11:47:02;;;;;;;82.70;42.20;;;;;;;9.26;100.00;101477.59;5050118;28;20059;-83